Aviation Digital Data Service (ADDS)

Output produced by METARs form (1423 UTC 21 August 2019)
found at http://www.aviationweather.gov/metar/data/
 
TAF ZBTJ 210900Z 2112/2212 27003MPS 5000 HZ NSC TX32/2207Z TN20/2121Z